Отчет УТП Минеральные Воды 01.05.2022

01 Мая 2022 года с 07 до 09 UTC в аэропорту Минеральных Вод (URMM) прошли учебно-тренировочные полеты в сети IVAO.

В работе был Минводы-Старт, Минводы-Круг и Минводы-Подход.

Погода во время УТП:

МETAR URMM 010730Z 07006MPS 9999 OVC013 13/09 Q1015
R12/090070 TEMPO 1000 SHRA BKN004 BKN020CB RMK MT OBSC QFE733/0978=

Движение в воздухе было свободным, 2 борта курсантов выполняли полёты.